Time;durP1;ratioP1;P1;durP2;ratioP2;P2;SDS_P1;SDS_P2;PMS_P1;PMS_P2;Temp;Humidity;BMP_temperature;BMP_pressure;BME280_temperature;BME280_humidity;BME280_pressure;Samples;Min_cycle;Max_cycle;Signal;HPM_P1;HPM_P2
2022/04/24 00:01:42;;;;;;;12.13;8.50;;;9.40;99.90;;;;;;5034625;28;20355;-75
2022/04/24 00:04:08;;;;;;;10.45;7.57;;;9.40;99.90;;;;;;5017144;28;20055;-74
2022/04/24 00:06:34;;;;;;;10.77;8.05;;;9.40;99.90;;;;;;5035609;28;20374;-73
2022/04/24 00:09:00;;;;;;;10.88;8.00;;;9.40;99.90;;;;;;5035838;28;20132;-74
2022/04/24 00:11:26;;;;;;;11.30;7.57;;;9.40;99.90;;;;;;5035507;28;20132;-74
2022/04/24 00:13:52;;;;;;;14.90;8.05;;;9.40;99.90;;;;;;5035558;28;20123;-74
2022/04/24 00:16:17;;;;;;;13.80;7.97;;;9.40;99.90;;;;;;5035460;28;20057;-74
2022/04/24 00:18:43;;;;;;;10.95;8.00;;;9.30;99.90;;;;;;5035808;28;20441;-73
2022/04/24 00:21:09;;;;;;;11.10;8.20;;;9.30;99.90;;;;;;5035667;28;20513;-74
2022/04/24 00:23:35;;;;;;;9.63;7.50;;;9.30;99.90;;;;;;5048829;28;20372;-73
2022/04/24 00:26:00;;;;;;;10.98;7.57;;;9.30;99.90;;;;;;5054618;28;20041;-73
2022/04/24 00:28:28;;;;;;;11.18;7.40;;;9.20;99.90;;;;;;5055240;28;20178;-74
2022/04/24 00:30:54;;;;;;;13.80;8.15;;;9.30;99.90;;;;;;5037754;28;20449;-74
2022/04/24 00:33:19;;;;;;;9.90;7.53;;;9.20;99.90;;;;;;5055112;28;20052;-74
2022/04/24 00:35:45;;;;;;;10.52;7.35;;;9.20;99.90;;;;;;5054996;28;20052;-74
2022/04/24 00:38:10;;;;;;;11.27;7.45;;;9.20;99.90;;;;;;5055284;28;20041;-73
2022/04/24 00:40:36;;;;;;;10.93;8.20;;;9.20;99.90;;;;;;5055326;28;20051;-74
2022/04/24 00:43:02;;;;;;;13.30;8.15;;;9.20;99.90;;;;;;5037330;28;20072;-73
2022/04/24 00:45:27;;;;;;;11.02;7.97;;;9.10;99.90;;;;;;5054790;28;20051;-73
2022/04/24 00:47:53;;;;;;;10.27;7.85;;;9.10;99.90;;;;;;5020293;28;20492;-74
2022/04/24 00:50:19;;;;;;;11.32;8.10;;;9.10;99.90;;;;;;5037418;28;20060;-74
2022/04/24 00:52:46;;;;;;;9.75;7.80;;;9.10;99.90;;;;;;5033854;28;20056;-73
2022/04/24 00:55:11;;;;;;;9.52;7.88;;;9.00;99.90;;;;;;5055053;28;20128;-74
2022/04/24 00:57:37;;;;;;;10.88;7.35;;;9.10;99.90;;;;;;5054745;28;20132;-74
2022/04/24 01:00:04;;;;;;;12.50;8.43;;;8.90;99.90;;;;;;5054625;28;20052;-75
2022/04/24 01:02:29;;;;;;;11.73;7.85;;;8.80;99.90;;;;;;5054981;28;20037;-74
2022/04/24 01:04:57;;;;;;;11.32;7.55;;;8.80;99.90;;;;;;5037216;28;20380;-74
2022/04/24 01:07:22;;;;;;;12.32;8.13;;;8.70;99.90;;;;;;5054896;28;20568;-74
2022/04/24 01:09:48;;;;;;;11.20;8.57;;;8.70;99.90;;;;;;5054778;28;20087;-74
2022/04/24 01:12:13;;;;;;;10.23;8.63;;;8.70;99.90;;;;;;5054825;28;20053;-71
2022/04/24 01:14:39;;;;;;;10.43;8.57;;;8.60;99.90;;;;;;5054591;28;20041;-72
2022/04/24 01:17:05;;;;;;;10.88;9.20;;;8.60;99.90;;;;;;5020983;28;20052;-71
2022/04/24 01:19:31;;;;;;;11.95;8.43;;;8.50;99.90;;;;;;5054524;28;20128;-73
2022/04/24 01:21:58;;;;;;;10.30;8.25;;;8.50;99.90;;;;;;5052173;28;20377;-72
2022/04/24 01:24:26;;;;;;;12.65;8.82;;;8.40;99.90;;;;;;5040578;28;20037;-72
2022/04/24 01:26:52;;;;;;;13.00;8.43;;;8.40;99.90;;;;;;5053852;28;20107;-72
2022/04/24 01:29:19;;;;;;;12.15;8.77;;;8.40;99.90;;;;;;5054264;28;20445;-73
2022/04/24 01:31:46;;;;;;;11.30;8.65;;;8.30;99.90;;;;;;5037036;28;20056;-73
2022/04/24 01:34:12;;;;;;;12.27;9.05;;;8.30;99.90;;;;;;5054424;28;20041;-71
2022/04/24 01:36:38;;;;;;;13.07;9.18;;;8.20;99.90;;;;;;5056854;28;20041;-71
2022/04/24 01:39:07;;;;;;;10.07;8.75;;;8.20;99.90;;;;;;5041100;28;20045;-72
2022/04/24 01:41:32;;;;;;;11.73;9.32;;;8.20;99.90;;;;;;5058308;28;20377;-72
2022/04/24 01:43:58;;;;;;;13.27;9.15;;;8.20;99.90;;;;;;5058179;28;20041;-71
2022/04/24 01:46:24;;;;;;;14.15;9.13;;;8.10;99.90;;;;;;5040074;28;20041;-75
2022/04/24 01:48:50;;;;;;;12.68;9.48;;;8.10;99.90;;;;;;5058217;28;20052;-74
2022/04/24 01:51:16;;;;;;;11.73;9.65;;;8.10;99.90;;;;;;5024376;28;20373;-73
2022/04/24 01:53:43;;;;;;;15.48;9.45;;;8.00;99.90;;;;;;5021010;28;20342;-73
2022/04/24 01:56:09;;;;;;;14.40;9.38;;;8.00;99.90;;;;;;5038386;28;20052;-74
2022/04/24 01:58:35;;;;;;;13.52;9.55;;;7.90;99.90;;;;;;5037978;28;20041;-75
2022/04/24 02:01:01;;;;;;;12.77;9.40;;;7.90;99.90;;;;;;5020712;28;20041;-74
2022/04/24 02:03:28;;;;;;;12.00;8.77;;;7.80;99.90;;;;;;5038068;28;20141;-74
2022/04/24 02:05:54;;;;;;;13.15;9.32;;;7.80;99.90;;;;;;5038725;28;20038;-73
2022/04/24 02:08:20;;;;;;;10.65;9.00;;;7.80;99.90;;;;;;5038033;28;20096;-74
2022/04/24 02:10:45;;;;;;;15.30;8.52;;;7.80;99.90;;;;;;5020319;28;20128;-73
2022/04/24 02:13:11;;;;;;;11.27;9.00;;;7.80;99.90;;;;;;5038909;28;20128;-74
2022/04/24 02:15:37;;;;;;;10.27;8.68;;;7.70;99.90;;;;;;5037887;28;20357;-73
2022/04/24 02:18:03;;;;;;;12.98;9.48;;;7.70;99.90;;;;;;5038121;28;20041;-74
2022/04/24 02:20:29;;;;;;;12.00;9.35;;;7.60;99.90;;;;;;5038077;28;20115;-73
2022/04/24 02:22:57;;;;;;;12.52;9.52;;;7.60;99.90;;;;;;5037577;28;20045;-74
2022/04/24 02:25:23;;;;;;;12.80;10.25;;;7.60;99.90;;;;;;5037855;28;20049;-73
2022/04/24 02:27:49;;;;;;;13.63;9.90;;;7.60;99.90;;;;;;5037499;28;20068;-75
2022/04/24 02:30:14;;;;;;;13.30;9.93;;;7.50;99.90;;;;;;5037894;28;20037;-74
2022/04/24 02:32:40;;;;;;;14.52;10.23;;;7.50;99.90;;;;;;5037818;28;20046;-74
2022/04/24 02:35:05;;;;;;;16.23;10.52;;;7.50;99.90;;;;;;5037730;28;20045;-72
2022/04/24 02:37:32;;;;;;;14.95;10.30;;;7.50;99.90;;;;;;5037508;28;20519;-75
2022/04/24 02:39:58;;;;;;;15.55;10.90;;;7.40;99.90;;;;;;5019707;28;20124;-74
2022/04/24 02:42:24;;;;;;;14.52;10.35;;;7.40;99.90;;;;;;5044114;28;20108;-73
2022/04/24 02:44:49;;;;;;;15.73;10.18;;;7.40;99.90;;;;;;5057085;28;20124;-73
2022/04/24 02:47:15;;;;;;;13.80;10.20;;;7.40;99.90;;;;;;5056622;28;20048;-73
2022/04/24 02:49:41;;;;;;;12.30;10.00;;;7.40;99.90;;;;;;5057455;28;20354;-74
2022/04/24 02:52:07;;;;;;;12.45;9.80;;;7.40;99.90;;;;;;5057145;28;20045;-73
2022/04/24 02:54:32;;;;;;;13.10;10.52;;;7.40;99.90;;;;;;5057094;28;20384;-74
2022/04/24 02:56:58;;;;;;;15.02;10.80;;;7.30;99.90;;;;;;5056864;28;20037;-74
2022/04/24 02:59:25;;;;;;;12.80;10.43;;;7.30;99.90;;;;;;5039342;28;20045;-74
2022/04/24 03:01:54;;;;;;;12.48;9.77;;;7.30;99.90;;;;;;5056719;28;20453;-74
2022/04/24 03:04:19;;;;;;;14.60;10.88;;;7.30;99.90;;;;;;5056809;28;20377;-73
2022/04/24 03:06:45;;;;;;;11.82;9.80;;;7.30;99.90;;;;;;5057100;28;20124;-74
2022/04/24 03:09:11;;;;;;;13.23;10.20;;;7.30;99.90;;;;;;5039183;28;20044;-74
2022/04/24 03:11:36;;;;;;;12.73;9.35;;;7.20;99.90;;;;;;5038060;28;20136;-74
2022/04/24 03:14:02;;;;;;;12.43;9.93;;;7.30;99.90;;;;;;5019453;28;20156;-74
2022/04/24 03:16:27;;;;;;;12.10;9.88;;;7.20;99.90;;;;;;5036719;28;20343;-75
2022/04/24 03:18:53;;;;;;;14.55;9.75;;;7.20;99.90;;;;;;5036710;28;20048;-74
2022/04/24 03:21:19;;;;;;;14.77;9.52;;;7.20;99.90;;;;;;5036114;28;20140;-74
2022/04/24 03:23:44;;;;;;;15.35;10.02;;;7.20;99.90;;;;;;5036498;28;20045;-74
2022/04/24 03:26:13;;;;;;;13.07;9.73;;;7.20;99.90;;;;;;5036839;28;20464;-73
2022/04/24 03:28:39;;;;;;;16.63;9.30;;;7.20;99.90;;;;;;5036518;28;20056;-73
2022/04/24 03:31:05;;;;;;;17.10;9.45;;;7.20;99.90;;;;;;5036397;28;20037;-75
2022/04/24 03:33:30;;;;;;;13.85;9.70;;;7.20;99.90;;;;;;5036450;28;20052;-73
2022/04/24 03:35:56;;;;;;;11.27;9.60;;;7.20;99.90;;;;;;5036540;28;20045;-74
2022/04/24 03:38:21;;;;;;;13.30;9.60;;;7.20;99.90;;;;;;5036035;28;20055;-75
2022/04/24 03:40:47;;;;;;;11.75;9.48;;;7.20;99.90;;;;;;5038374;28;20060;-74
2022/04/24 03:43:12;;;;;;;16.08;9.32;;;7.20;99.90;;;;;;5056281;28;20357;-74
2022/04/24 03:45:38;;;;;;;13.15;9.95;;;7.20;99.90;;;;;;5055703;28;20056;-74
2022/04/24 03:48:04;;;;;;;12.57;9.15;;;7.20;99.90;;;;;;5056124;28;20045;-74
2022/04/24 03:50:29;;;;;;;15.13;9.90;;;7.10;99.90;;;;;;5056041;28;20049;-74
2022/04/24 03:52:55;;;;;;;12.23;9.30;;;7.10;99.90;;;;;;5056075;28;20045;-72
2022/04/24 03:55:20;;;;;;;12.88;8.63;;;7.10;99.90;;;;;;5056024;28;20040;-73
2022/04/24 03:57:46;;;;;;;14.30;9.57;;;7.00;99.90;;;;;;5056141;28;20048;-74
2022/04/24 04:00:12;;;;;;;13.02;9.25;;;7.10;99.90;;;;;;5054515;28;20109;-73
2022/04/24 04:02:42;;;;;;;15.40;9.77;;;7.10;99.90;;;;;;5038411;28;20110;-73
2022/04/24 04:05:08;;;;;;;12.32;9.27;;;7.10;99.90;;;;;;5033870;28;20053;-74
2022/04/24 04:07:34;;;;;;;14.65;10.38;;;7.10;99.90;;;;;;5000874;28;20049;-74
2022/04/24 04:10:00;;;;;;;13.77;9.52;;;7.10;99.90;;;;;;5038810;28;20049;-74
2022/04/24 04:12:27;;;;;;;12.20;9.27;;;7.10;99.90;;;;;;5047655;28;20048;-73
2022/04/24 04:14:53;;;;;;;14.38;9.07;;;7.00;99.90;;;;;;5055791;28;20044;-74
2022/04/24 04:17:18;;;;;;;13.90;9.43;;;7.10;99.90;;;;;;5055535;28;20452;-73
2022/04/24 04:19:44;;;;;;;14.18;9.18;;;7.00;99.90;;;;;;5055498;28;20071;-73
2022/04/24 04:22:09;;;;;;;14.35;8.38;;;7.00;99.90;;;;;;5055064;28;20064;-73
2022/04/24 04:24:35;;;;;;;12.13;9.93;;;7.00;99.90;;;;;;5055242;28;20041;-72
2022/04/24 04:27:01;;;;;;;14.18;9.30;;;7.00;99.90;;;;;;5055318;28;20527;-73
2022/04/24 04:29:26;;;;;;;11.23;9.20;;;7.30;99.90;;;;;;5051710;28;20083;-74
2022/04/24 04:31:52;;;;;;;13.00;9.50;;;7.00;99.90;;;;;;5038021;28;20045;-73
2022/04/24 04:34:17;;;;;;;13.32;8.93;;;7.00;99.90;;;;;;5021316;28;20044;-75
2022/04/24 04:36:43;;;;;;;12.43;9.40;;;7.20;99.90;;;;;;5054970;28;20442;-73
2022/04/24 04:39:08;;;;;;;12.40;8.65;;;7.00;99.90;;;;;;5045928;28;20037;-73
2022/04/24 04:41:34;;;;;;;13.32;8.93;;;7.00;99.90;;;;;;5035044;28;20365;-74
2022/04/24 04:44:00;;;;;;;11.52;8.38;;;7.00;99.90;;;;;;5017897;28;20103;-75
2022/04/24 04:46:26;;;;;;;12.40;8.70;;;7.00;99.90;;;;;;5017786;28;20056;-74
2022/04/24 04:48:52;;;;;;;13.35;8.88;;;7.00;99.90;;;;;;5035356;28;20152;-74
2022/04/24 04:51:17;;;;;;;13.98;9.10;;;7.10;99.90;;;;;;5035143;28;20335;-73
2022/04/24 04:53:43;;;;;;;12.88;8.57;;;7.30;99.90;;;;;;5034849;28;20056;-74
2022/04/24 04:56:08;;;;;;;12.93;8.43;;;7.10;99.90;;;;;;5018140;28;20049;-74
2022/04/24 04:58:34;;;;;;;12.32;9.10;;;7.20;99.90;;;;;;5034719;28;20041;-73
2022/04/24 05:01:00;;;;;;;11.82;8.85;;;7.20;99.90;;;;;;5034901;28;20056;-74
2022/04/24 05:03:26;;;;;;;12.30;8.63;;;7.20;99.90;;;;;;5017489;28;20041;-73
2022/04/24 05:05:52;;;;;;;11.70;8.82;;;7.30;99.90;;;;;;5034644;28;20059;-74
2022/04/24 05:08:17;;;;;;;13.05;10.00;;;7.40;99.90;;;;;;5018933;28;20373;-73
2022/04/24 05:10:43;;;;;;;14.43;8.45;;;7.40;99.90;;;;;;5024285;28;20532;-73
2022/04/24 05:13:08;;;;;;;12.13;8.57;;;7.50;99.90;;;;;;5061240;28;20045;-73
2022/04/24 05:15:34;;;;;;;13.40;9.25;;;7.60;99.90;;;;;;5061712;28;20048;-74
2022/04/24 05:18:00;;;;;;;13.95;9.68;;;7.70;99.90;;;;;;5061376;28;20045;-75
2022/04/24 05:20:25;;;;;;;15.93;9.20;;;7.70;99.90;;;;;;5061091;28;20049;-72
2022/04/24 05:22:51;;;;;;;18.13;10.05;;;8.00;99.90;;;;;;5061334;28;20048;-74
2022/04/24 05:25:16;;;;;;;12.85;9.63;;;7.90;99.90;;;;;;5048092;28;20052;-72
2022/04/24 05:27:45;;;;;;;14.15;9.80;;;8.00;99.90;;;;;;5065380;28;20045;-73
2022/04/24 05:30:11;;;;;;;15.80;9.52;;;8.10;99.90;;;;;;5041732;28;20119;-76
2022/04/24 05:32:39;;;;;;;14.77;10.13;;;8.20;99.90;;;;;;5049478;28;20052;-73
2022/04/24 05:35:05;;;;;;;13.13;9.20;;;8.40;99.90;;;;;;5060483;28;20045;-74
2022/04/24 05:37:31;;;;;;;12.90;9.38;;;8.60;99.90;;;;;;5047433;28;20045;-73
2022/04/24 05:39:56;;;;;;;13.27;10.07;;;8.80;99.90;;;;;;5043562;28;20064;-73
2022/04/24 05:42:22;;;;;;;13.73;9.52;;;9.10;99.90;;;;;;5040965;28;20057;-73
2022/04/24 05:44:47;;;;;;;14.52;9.23;;;9.30;99.90;;;;;;5023445;28;20045;-74
2022/04/24 05:47:13;;;;;;;12.23;8.30;;;9.80;99.90;;;;;;5023528;28;20045;-72
2022/04/24 05:49:38;;;;;;;11.15;8.88;;;10.30;99.90;;;;;;5054642;28;20378;-75
2022/04/24 05:52:04;;;;;;;12.00;9.27;;;10.50;99.90;;;;;;5061726;28;20381;-74
2022/04/24 05:54:30;;;;;;;12.43;8.73;;;10.60;99.90;;;;;;5056577;28;20538;-70
2022/04/24 05:56:56;;;;;;;12.20;8.70;;;11.10;99.90;;;;;;5060915;28;20041;-74
2022/04/24 05:59:21;;;;;;;12.70;8.93;;;11.20;99.90;;;;;;5060750;28;20055;-73
2022/04/24 06:01:47;;;;;;;13.00;8.27;;;11.00;99.90;;;;;;5043100;28;20105;-73
2022/04/24 06:04:12;;;;;;;12.23;8.48;;;10.90;99.90;;;;;;5052661;28;20503;-72
2022/04/24 06:06:38;;;;;;;14.05;8.48;;;10.90;99.90;;;;;;5039680;28;20526;-72
2022/04/24 06:09:06;;;;;;;12.65;8.25;;;10.70;99.90;;;;;;5040542;28;20499;-71
2022/04/24 06:11:32;;;;;;;15.15;9.02;;;10.70;99.90;;;;;;5040471;28;20057;-72
2022/04/24 06:13:58;;;;;;;13.45;8.98;;;10.60;99.90;;;;;;5037263;28;20045;-73
2022/04/24 06:16:23;;;;;;;12.05;7.88;;;10.50;99.90;;;;;;5040652;28;20056;-73
2022/04/24 06:18:49;;;;;;;13.45;8.98;;;10.50;99.90;;;;;;5024051;28;20650;-72
2022/04/24 06:21:15;;;;;;;13.45;8.63;;;10.50;99.90;;;;;;5049127;28;20511;-73
2022/04/24 06:23:40;;;;;;;10.98;7.82;;;10.50;99.90;;;;;;5056464;28;20132;-73
2022/04/24 06:26:06;;;;;;;13.27;7.65;;;10.50;99.90;;;;;;5057751;28;20079;-72
2022/04/24 06:28:31;;;;;;;11.43;7.65;;;10.50;99.90;;;;;;5057546;28;20095;-76
2022/04/24 06:30:57;;;;;;;15.65;7.75;;;10.30;99.90;;;;;;5057548;28;20048;-74
2022/04/24 06:33:23;;;;;;;12.05;7.15;;;10.20;99.90;;;;;;5057476;28;20041;-74
2022/04/24 06:35:48;;;;;;;11.60;6.97;;;10.30;99.90;;;;;;5057097;28;20053;-73
2022/04/24 06:38:14;;;;;;;9.23;6.80;;;11.00;99.90;;;;;;5039728;28;20132;-74
2022/04/24 06:40:39;;;;;;;10.13;6.28;;;11.90;99.90;;;;;;5039472;28;20060;-73
2022/04/24 06:43:07;;;;;;;9.40;6.10;;;12.90;99.90;;;;;;5040146;28;20424;-70
2022/04/24 06:45:35;;;;;;;9.10;5.63;;;13.10;99.90;;;;;;5057380;28;20052;-72
2022/04/24 06:48:06;;;;;;;7.95;5.00;;;13.00;99.90;;;;;;5057680;28;20055;-73
2022/04/24 06:50:33;;;;;;;8.45;4.88;;;13.00;99.90;;;;;;5037697;28;20133;-74
2022/04/24 06:53:03;;;;;;;12.07;5.10;;;13.40;99.90;;;;;;5034297;28;20107;-74
2022/04/24 06:55:31;;;;;;;9.02;5.60;;;13.70;99.90;;;;;;5036872;28;20042;-75
2022/04/24 06:57:57;;;;;;;6.90;4.45;;;13.20;99.90;;;;;;5020115;28;20057;-76
2022/04/24 07:00:24;;;;;;;7.18;4.45;;;12.90;99.90;;;;;;5037258;28;20057;-74
2022/04/24 07:02:50;;;;;;;9.05;4.53;;;12.80;99.90;;;;;;5019439;28;20042;-75
2022/04/24 07:05:16;;;;;;;9.88;4.25;;;12.60;99.90;;;;;;5036750;28;20041;-75
2022/04/24 07:07:42;;;;;;;7.18;4.32;;;12.40;99.90;;;;;;5019258;28;20064;-77
2022/04/24 07:10:09;;;;;;;6.32;3.88;;;12.10;99.90;;;;;;5037063;28;20374;-76
2022/04/24 07:12:50;;;;;;;6.68;3.30;;;12.10;99.90;;;;;;5019092;28;20053;-76
2022/04/24 07:15:17;;;;;;;5.93;3.80;;;12.00;99.90;;;;;;5018963;28;20056;-76
2022/04/24 07:17:43;;;;;;;7.88;3.67;;;12.00;99.90;;;;;;5019878;28;20049;-76
2022/04/24 07:20:10;;;;;;;6.28;3.38;;;11.90;99.90;;;;;;5036144;28;20098;-77
2022/04/24 07:23:04;;;;;;;6.63;3.55;;;12.00;99.90;;;;;;5038912;28;20052;-77
2022/04/24 07:25:40;;;;;;;5.20;3.38;;;12.00;99.90;;;;;;5019779;28;20064;-77
2022/04/24 07:28:10;;;;;;;7.15;3.10;;;12.10;99.90;;;;;;5038395;28;20072;-77
2022/04/24 07:30:35;;;;;;;8.23;3.53;;;12.10;99.90;;;;;;5056056;28;20076;-76
2022/04/24 07:33:01;;;;;;;6.18;3.28;;;12.30;99.90;;;;;;5039199;28;20091;-75
2022/04/24 07:35:30;;;;;;;6.22;3.35;;;12.40;99.90;;;;;;5038538;28;20052;-76
2022/04/24 07:37:56;;;;;;;7.63;3.10;;;12.30;99.90;;;;;;5056371;28;20101;-76
2022/04/24 07:40:24;;;;;;;6.53;3.20;;;12.70;99.90;;;;;;5056003;28;20518;-76
2022/04/24 07:42:57;;;;;;;6.57;3.40;;;13.50;99.90;;;;;;5038707;28;20102;-74
2022/04/24 07:45:24;;;;;;;;;;;14.30;99.90;;;;;;5056404;28;20041;-72
2022/04/24 07:47:52;;;;;;;6.97;2.90;;;15.00;99.90;;;;;;5055936;28;20316;-76
2022/04/24 07:50:19;;;;;;;5.55;3.10;;;15.10;99.90;;;;;;5018933;28;20159;-77
2022/04/24 07:52:47;;;;;;;5.80;3.30;;;14.40;99.90;;;;;;5035922;28;20081;-76
2022/04/24 07:55:13;;;;;;;4.38;3.33;;;13.80;99.90;;;;;;5018325;28;20119;-77
2022/04/24 07:57:39;;;;;;;6.15;3.25;;;13.30;99.90;;;;;;5036157;28;20060;-75
2022/04/24 08:00:07;;;;;;;6.13;3.03;;;13.20;99.90;;;;;;5018668;28;20214;-77
2022/04/24 08:02:32;;;;;;;6.75;3.90;;;13.10;99.90;;;;;;5000757;28;20061;-75
2022/04/24 08:04:58;;;;;;;8.93;3.45;;;13.10;99.90;;;;;;5018304;28;20194;-77
2022/04/24 08:07:23;;;;;;;7.93;3.67;;;13.10;99.90;;;;;;5001729;28;20057;-76
2022/04/24 08:09:49;;;;;;;7.07;3.70;;;13.40;99.90;;;;;;5035582;28;20038;-75
2022/04/24 08:12:16;;;;;;;6.85;3.20;;;14.20;99.90;;;;;;5035810;28;20053;-75
2022/04/24 08:14:41;;;;;;;7.60;3.10;;;15.30;99.90;;;;;;5018156;28;20046;-77
2022/04/24 08:17:07;;;;;;;6.68;3.33;;;15.90;99.90;;;;;;5035651;28;20111;-77
2022/04/24 08:19:33;;;;;;;5.15;3.25;;;16.60;99.20;;;;;;5045336;28;20069;-77
2022/04/24 08:21:58;;;;;;;6.00;3.60;;;16.40;97.90;;;;;;5037843;28;20122;-78
2022/04/24 08:24:24;;;;;;;7.10;3.55;;;16.70;97.90;;;;;;5055322;28;20048;-75
2022/04/24 08:26:49;;;;;;;9.98;3.10;;;16.90;97.50;;;;;;5055595;28;20049;-77
2022/04/24 08:29:15;;;;;;;6.15;3.15;;;16.90;97.40;;;;;;5055526;28;20048;-77
2022/04/24 08:31:41;;;;;;;9.13;3.97;;;16.70;96.30;;;;;;5021400;28;20088;-75
2022/04/24 08:34:06;;;;;;;7.00;3.38;;;17.00;96.60;;;;;;5055193;28;20045;-77
2022/04/24 08:36:32;;;;;;;6.65;3.20;;;17.20;96.30;;;;;;5037416;28;20049;-77
2022/04/24 08:38:57;;;;;;;6.28;3.00;;;17.50;96.60;;;;;;5003104;28;20135;-75
2022/04/24 08:41:28;;;;;;;5.97;3.08;;;17.40;95.70;;;;;;5001339;28;20485;-71
2022/04/24 08:43:55;;;;;;;7.82;3.55;;;17.30;95.10;;;;;;5035146;28;20045;-76
2022/04/24 08:46:23;;;;;;;5.80;3.17;;;17.40;95.10;;;;;;5016961;28;20048;-76
2022/04/24 08:48:49;;;;;;;8.48;3.70;;;17.60;95.10;;;;;;5017660;28;20041;-77
2022/04/24 08:51:17;;;;;;;5.22;3.13;;;17.30;94.10;;;;;;5001478;28;20128;-74
2022/04/24 08:53:43;;;;;;;6.63;3.08;;;17.50;94.20;;;;;;5017635;28;20057;-77
2022/04/24 08:56:09;;;;;;;11.68;3.47;;;17.30;93.50;;;;;;5034770;28;20049;-75
2022/04/24 08:58:34;;;;;;;10.05;3.20;;;17.10;93.90;;;;;;5034742;28;20052;-74
2022/04/24 09:01:00;;;;;;;6.63;3.22;;;16.80;94.30;;;;;;5035277;28;20128;-78
2022/04/24 09:03:25;;;;;;;8.32;3.55;;;16.50;95.20;;;;;;5001374;28;20041;-75
2022/04/24 09:05:51;;;;;;;5.85;3.40;;;16.00;95.80;;;;;;5034711;28;20049;-75
2022/04/24 09:08:21;;;;;;;8.45;3.33;;;15.60;96.40;;;;;;5034531;28;20080;-77
2022/04/24 09:10:52;;;;;;;8.27;3.78;;;15.30;97.10;;;;;;5032312;28;20484;-77
2022/04/24 09:14:14;;;;;;;6.70;3.00;;;15.10;97.60;;;;;;5054597;28;20049;-79
2022/04/24 09:16:35;;;;;;;5.35;3.25;;;15.20;97.50;;;;;;5054210;28;20127;-78
2022/04/24 09:19:00;;;;;;;11.13;3.35;;;15.10;97.40;;;;;;5020815;28;20120;-77
2022/04/24 09:21:26;;;;;;;5.97;3.17;;;14.80;97.30;;;;;;5037066;28;20091;-78
2022/04/24 09:23:52;;;;;;;6.80;3.10;;;15.00;97.20;;;;;;5020423;28;20127;-76
2022/04/24 09:26:17;;;;;;;6.82;3.25;;;14.90;97.60;;;;;;5020231;28;20033;-76
2022/04/24 09:28:44;;;;;;;6.28;2.97;;;15.00;97.00;;;;;;5054630;28;20453;-76
2022/04/24 09:31:10;;;;;;;5.28;3.08;;;15.40;96.80;;;;;;5054105;28;20033;-78
2022/04/24 09:33:40;;;;;;;5.40;3.08;;;15.80;96.30;;;;;;5036768;28;20087;-75
2022/04/24 09:36:07;;;;;;;6.72;2.92;;;16.10;95.60;;;;;;5054596;28;20036;-79
2022/04/24 09:38:42;;;;;;;6.50;3.60;;;16.40;95.50;;;;;;5037079;28;20377;-74
2022/04/24 09:41:19;;;;;;;5.55;2.80;;;16.70;95.00;;;;;;5054563;28;20033;-77
2022/04/24 09:43:44;;;;;;;6.18;3.10;;;16.70;95.00;;;;;;5033623;28;20045;-77
2022/04/24 09:46:10;;;;;;;4.57;3.00;;;16.30;94.90;;;;;;5045405;28;20065;-74
2022/04/24 09:48:36;;;;;;;7.88;3.35;;;16.10;95.20;;;;;;5056140;28;20504;-75
2022/04/24 09:51:02;;;;;;;6.13;3.13;;;15.90;95.80;;;;;;5036565;28;20159;-75
2022/04/24 09:53:29;;;;;;;8.30;3.53;;;15.60;95.60;;;;;;5054706;28;20116;-76
2022/04/24 09:55:55;;;;;;;8.13;3.47;;;15.30;96.00;;;;;;5054325;28;20119;-76
2022/04/24 09:58:21;;;;;;;7.53;3.30;;;15.40;96.40;;;;;;5022058;28;20080;-76
2022/04/24 10:00:47;;;;;;;6.85;3.30;;;15.20;97.00;;;;;;5012923;28;20131;-73
2022/04/24 10:03:17;;;;;;;5.63;2.80;;;15.10;96.40;;;;;;5034352;28;20072;-73
2022/04/24 10:05:46;;;;;;;7.55;3.33;;;15.20;96.50;;;;;;5020612;28;20049;-76
2022/04/24 10:08:13;;;;;;;10.50;3.45;;;15.20;96.60;;;;;;5037785;28;20116;-77
2022/04/24 10:10:39;;;;;;;5.05;2.95;;;15.00;96.80;;;;;;5023155;28;20137;-75
2022/04/24 10:13:09;;;;;;;6.75;3.47;;;14.80;97.10;;;;;;5000187;28;20062;-74
2022/04/24 10:15:38;;;;;;;5.72;3.00;;;14.80;97.30;;;;;;4981598;28;20124;-77
2022/04/24 10:18:18;;;;;;;6.80;3.25;;;15.00;97.80;;;;;;4998492;28;20093;-73
2022/04/24 10:21:21;;;;;;;4.70;3.13;;;15.10;96.70;;;;;;4998701;28;20049;-75
2022/04/24 10:23:46;;;;;;;5.68;3.78;;;15.20;96.90;;;;;;4997246;28;20057;-78
2022/04/24 10:26:20;;;;;;;7.57;3.40;;;15.30;96.80;;;;;;4976651;28;20046;-78
2022/04/24 10:28:47;;;;;;;7.55;3.13;;;15.40;97.70;;;;;;4981252;28;20042;-75
2022/04/24 10:31:15;;;;;;;5.10;2.72;;;15.50;96.40;;;;;;4981119;28;20078;-76
2022/04/24 10:33:51;;;;;;;5.85;3.10;;;15.60;96.70;;;;;;4980758;28;20050;-78
2022/04/24 10:36:18;;;;;;;4.85;2.90;;;15.80;96.00;;;;;;4980691;28;20112;-78
2022/04/24 10:38:54;;;;;;;7.32;3.22;;;15.80;95.80;;;;;;4986926;28;20064;-75
2022/04/24 10:41:25;;;;;;;5.13;2.75;;;15.90;96.30;;;;;;5020148;28;20100;-75
2022/04/24 10:44:06;;;;;;;6.65;2.67;;;15.80;96.00;;;;;;5037387;28;20080;-78
2022/04/24 10:46:33;;;;;;;6.53;2.75;;;15.80;96.30;;;;;;5019811;28;20084;-77
2022/04/24 10:49:11;;;;;;;5.25;2.90;;;16.00;96.50;;;;;;5037050;28;20081;-75
2022/04/24 10:51:40;;;;;;;6.40;2.63;;;16.30;95.70;;;;;;5037462;28;20111;-78
2022/04/24 10:54:14;;;;;;;4.40;2.63;;;16.40;95.30;;;;;;5037787;28;20037;-78
2022/04/24 10:56:53;;;;;;;8.32;3.08;;;16.40;94.80;;;;;;5019511;28;20081;-78
2022/04/24 10:59:21;;;;;;;9.13;3.20;;;16.50;95.20;;;;;;5004249;28;20052;-77
2022/04/24 11:01:52;;;;;;;5.43;2.92;;;16.40;94.40;;;;;;5019378;28;20077;-78
2022/04/24 11:04:19;;;;;;;6.82;3.35;;;16.20;94.40;;;;;;5031624;28;20120;-77
2022/04/24 11:06:56;;;;;;;6.07;2.63;;;16.10;95.00;;;;;;5016028;28;20042;-78
2022/04/24 11:09:24;;;;;;;5.00;2.67;;;16.10;94.20;;;;;;5024077;28;20209;-77
2022/04/24 11:11:58;;;;;;;7.55;2.50;;;16.20;94.90;;;;;;5027561;28;20065;-76
2022/04/24 11:14:26;;;;;;;5.00;2.40;;;16.30;94.50;;;;;;5056652;28;20110;-77
2022/04/24 11:17:02;;;;;;;7.35;2.50;;;16.30;94.00;;;;;;5056550;28;20049;-77
2022/04/24 11:19:34;;;;;;;5.47;2.60;;;16.30;93.90;;;;;;5038918;28;20504;-76
2022/04/24 11:22:07;;;;;;;7.78;2.63;;;16.40;94.00;;;;;;5006702;28;20044;-76
2022/04/24 11:24:38;;;;;;;4.95;2.40;;;16.40;92.70;;;;;;5020494;28;20048;-75
2022/04/24 11:27:07;;;;;;;8.80;2.53;;;16.30;92.60;;;;;;5021962;28;20076;-76
2022/04/24 11:29:33;;;;;;;9.18;2.92;;;16.30;93.10;;;;;;5038308;28;20049;-75
2022/04/24 11:32:00;;;;;;;5.50;2.70;;;16.50;92.80;;;;;;5056324;28;20067;-78
2022/04/24 11:34:25;;;;;;;6.03;2.65;;;16.40;92.60;;;;;;5038682;28;20052;-81
2022/04/24 11:36:56;;;;;;;4.40;2.80;;;16.50;92.40;;;;;;5038875;28;20358;-81
2022/04/24 11:39:22;;;;;;;6.03;2.53;;;16.70;92.50;;;;;;5038696;28;20195;-79
2022/04/24 11:41:51;;;;;;;6.15;2.80;;;17.00;92.10;;;;;;5056149;28;20041;-81
2022/04/24 11:52:38;;;;;;;5.75;3.00;;;16.20;92.00;;;;;;5034266;28;20484;-75
2022/04/24 11:55:08;;;;;;;7.63;3.17;;;16.10;92.40;;;;;;5035773;28;20048;-74
2022/04/24 12:00:18;;;;;;;6.25;2.95;;;15.80;93.00;;;;;;5086316;22;20057;-72
2022/04/24 12:02:44;;;;;;;7.90;3.10;;;15.90;93.50;;;;;;5055952;28;20084;-75
2022/04/24 12:05:10;;;;;;;7.85;2.72;;;16.00;93.10;;;;;;5055940;28;20076;-75
2022/04/24 12:07:36;;;;;;;7.50;3.10;;;16.10;93.20;;;;;;5035665;28;20449;-75
2022/04/24 12:10:05;;;;;;;15.13;8.45;;;16.10;92.50;;;;;;5031351;28;20053;-74
2022/04/24 12:12:31;;;;;;;9.82;4.45;;;16.10;93.40;;;;;;5019858;28;20041;-75
2022/04/24 12:14:56;;;;;;;8.20;3.47;;;16.20;93.00;;;;;;5021323;28;20473;-74
2022/04/24 12:17:23;;;;;;;5.55;3.42;;;16.10;93.40;;;;;;5055968;28;20374;-75
2022/04/24 12:19:54;;;;;;;8.15;4.45;;;16.10;93.60;;;;;;5020543;28;20106;-76
2022/04/24 12:22:31;;;;;;;6.40;3.78;;;16.20;93.50;;;;;;5038566;28;20116;-76
2022/04/24 12:25:15;;;;;;;6.78;4.25;;;16.20;93.90;;;;;;5015621;28;20047;-74
2022/04/24 12:27:52;;;;;;;7.60;4.63;;;16.20;93.90;;;;;;5055276;28;20073;-74
2022/04/24 12:30:18;;;;;;;11.63;8.38;;;15.90;93.60;;;;;;5055025;28;20037;-74
2022/04/24 12:32:44;;;;;;;8.65;7.35;;;16.00;94.40;;;;;;5037411;28;20048;-76
2022/04/24 12:35:28;;;;;;;6.13;4.07;;;16.10;94.00;;;;;;5054840;28;20453;-75
2022/04/24 12:37:54;;;;;;;5.88;3.35;;;16.10;93.70;;;;;;5038291;28;20106;-76
2022/04/24 12:40:21;;;;;;;5.70;3.60;;;16.10;93.80;;;;;;5055283;28;20040;-76
2022/04/24 12:42:54;;;;;;;7.80;3.58;;;16.00;93.70;;;;;;5055401;28;20037;-75
2022/04/24 12:45:24;;;;;;;5.18;2.90;;;15.90;94.90;;;;;;5051386;28;20343;-74
2022/04/24 12:47:50;;;;;;;7.57;4.57;;;16.00;95.00;;;;;;5036493;28;20044;-75
2022/04/24 12:50:17;;;;;;;5.97;4.20;;;15.70;95.50;;;;;;5036846;28;20374;-75
2022/04/24 12:52:45;;;;;;;7.78;3.55;;;15.70;95.70;;;;;;5020335;28;20051;-74
2022/04/24 12:55:11;;;;;;;6.78;3.72;;;15.90;95.80;;;;;;5054003;28;20048;-74
2022/04/24 12:57:38;;;;;;;7.03;4.10;;;16.00;96.00;;;;;;5054508;28;20049;-76